Time;durP1;ratioP1;P1;durP2;ratioP2;P2;SDS_P1;SDS_P2;PMS_P1;PMS_P2;Temp;Humidity;BMP_temperature;BMP_pressure;BME280_temperature;BME280_humidity;BME280_pressure;Samples;Min_cycle;Max_cycle;Signal;HPM_P1;HPM_P2
2022/04/25 00:01:31;;;;;;;14.80;6.03;;;9.40;94.00;;;;;;4959437;28;20501;-68
2022/04/25 00:03:57;;;;;;;11.60;6.07;;;9.50;94.00;;;;;;4951722;28;20101;-69
2022/04/25 00:06:23;;;;;;;9.20;5.60;;;9.50;94.00;;;;;;4955787;28;20129;-68
2022/04/25 00:08:48;;;;;;;12.05;5.57;;;9.40;94.00;;;;;;4955907;28;20046;-69
2022/04/25 00:11:15;;;;;;;9.32;5.15;;;9.40;93.90;;;;;;4954329;28;20031;-69
2022/04/25 00:13:41;;;;;;;10.77;4.97;;;9.40;93.90;;;;;;4960666;28;20054;-69
2022/04/25 00:16:06;;;;;;;11.52;5.97;;;9.40;93.90;;;;;;4955847;28;20579;-69
2022/04/25 00:18:32;;;;;;;12.65;5.97;;;9.40;94.00;;;;;;4960761;28;20035;-67
2022/04/25 00:21:00;;;;;;;10.18;5.93;;;9.30;94.00;;;;;;4954502;28;20070;-68
2022/04/25 00:23:26;;;;;;;11.13;5.43;;;9.30;94.10;;;;;;4953308;28;20923;-68
2022/04/25 00:25:52;;;;;;;14.15;7.57;;;9.30;94.10;;;;;;4959012;28;20043;-68
2022/04/25 00:28:18;;;;;;;14.13;6.95;;;9.30;94.10;;;;;;4952925;28;20035;-69
2022/04/25 00:30:47;;;;;;;13.63;5.55;;;9.30;94.10;;;;;;4957856;28;20042;-68
2022/04/25 00:33:13;;;;;;;9.07;5.03;;;9.20;94.20;;;;;;4959133;28;20134;-68
2022/04/25 00:35:39;;;;;;;14.57;6.05;;;9.10;94.30;;;;;;4954835;28;20093;-68
2022/04/25 00:38:04;;;;;;;15.02;5.90;;;9.00;94.20;;;;;;4953920;28;20027;-68
2022/04/25 00:40:30;;;;;;;9.95;5.40;;;9.00;94.00;;;;;;4957344;28;20039;-68
2022/04/25 00:42:56;;;;;;;9.75;5.30;;;8.90;94.00;;;;;;4957793;28;20069;-68
2022/04/25 00:45:22;;;;;;;13.98;6.38;;;8.80;94.20;;;;;;4954590;28;20877;-68
2022/04/25 00:47:47;;;;;;;11.52;5.90;;;8.70;94.40;;;;;;4955842;28;20076;-68
2022/04/25 00:50:14;;;;;;;10.48;5.85;;;8.70;94.60;;;;;;4958843;28;20062;-68
2022/04/25 00:52:40;;;;;;;9.25;5.68;;;8.70;94.50;;;;;;4943245;28;20037;-68
2022/04/25 00:55:08;;;;;;;13.68;5.88;;;8.70;94.50;;;;;;4953039;28;20784;-68
2022/04/25 00:57:35;;;;;;;13.95;6.38;;;8.70;94.50;;;;;;4957377;28;20587;-68
2022/04/25 01:00:03;;;;;;;13.00;6.53;;;8.70;94.50;;;;;;4954781;28;20027;-68
2022/04/25 01:02:29;;;;;;;9.00;5.60;;;8.70;94.60;;;;;;4953892;28;20038;-68
2022/04/25 01:04:55;;;;;;;12.80;6.53;;;8.80;94.70;;;;;;4953020;28;20146;-68
2022/04/25 01:07:21;;;;;;;16.23;6.50;;;8.90;94.50;;;;;;4955013;28;20089;-68
2022/04/25 01:09:47;;;;;;;14.02;5.88;;;8.90;94.60;;;;;;4952747;28;20050;-68
2022/04/25 01:12:13;;;;;;;10.18;5.80;;;8.90;94.40;;;;;;4957672;28;20026;-68
2022/04/25 01:14:39;;;;;;;14.75;6.15;;;8.90;94.30;;;;;;4956365;28;20937;-68
2022/04/25 01:17:05;;;;;;;21.50;6.75;;;8.90;94.20;;;;;;4956367;28;20197;-68
2022/04/25 01:19:32;;;;;;;11.68;6.43;;;9.00;94.10;;;;;;4954167;28;20034;-68
2022/04/25 01:22:13;;;;;;;14.00;6.78;;;9.00;94.10;;;;;;4954079;28;20047;-68
2022/04/25 01:27:23;;;;;;;14.60;6.25;;;9.00;93.80;;;;;;4951185;28;20045;-68
2022/04/25 01:29:54;;;;;;;13.45;6.65;;;9.00;93.60;;;;;;4954701;28;20031;-68
2022/04/25 01:32:23;;;;;;;13.02;6.72;;;9.00;93.50;;;;;;4956934;28;20483;-68
2022/04/25 01:34:49;;;;;;;11.68;5.88;;;9.00;93.50;;;;;;4956497;28;20035;-68
2022/04/25 01:37:18;;;;;;;13.25;7.25;;;8.90;93.70;;;;;;4956954;28;20077;-68
2022/04/25 01:39:56;;;;;;;16.50;6.35;;;8.90;93.60;;;;;;4953284;28;20035;-68
2022/04/25 01:42:23;;;;;;;14.10;6.32;;;8.90;93.50;;;;;;4951793;28;20153;-68
2022/04/25 01:44:50;;;;;;;9.25;5.55;;;8.90;93.50;;;;;;4954539;28;20026;-68
2022/04/25 01:47:17;;;;;;;17.35;6.70;;;8.90;93.60;;;;;;4959168;28;20042;-68
2022/04/25 01:49:43;;;;;;;16.10;6.28;;;8.90;94.10;;;;;;4935512;29;20051;-68
2022/04/25 01:52:23;;;;;;;11.88;6.13;;;8.90;93.80;;;;;;4955888;28;20038;-68
2022/04/25 01:54:49;;;;;;;10.18;6.68;;;8.90;93.70;;;;;;4952924;28;20089;-68
2022/04/25 01:57:15;;;;;;;18.40;7.70;;;8.90;93.90;;;;;;4952495;28;20039;-68
2022/04/25 01:59:41;;;;;;;18.30;7.47;;;8.90;94.00;;;;;;4955219;28;20081;-68
2022/04/25 02:02:07;;;;;;;10.43;6.35;;;8.90;93.90;;;;;;4952244;28;20970;-68
2022/04/25 02:04:32;;;;;;;12.48;6.38;;;8.90;93.80;;;;;;4954605;28;20034;-68
2022/04/25 02:06:58;;;;;;;13.77;6.90;;;8.90;93.80;;;;;;4955368;28;20035;-68
2022/04/25 02:09:24;;;;;;;18.40;7.80;;;8.90;93.70;;;;;;4955714;28;20053;-68
2022/04/25 02:11:50;;;;;;;14.40;6.78;;;8.90;93.60;;;;;;4954976;28;20031;-68
2022/04/25 02:14:16;;;;;;;14.82;7.53;;;8.90;93.60;;;;;;4953721;28;20081;-68
2022/04/25 02:16:42;;;;;;;12.68;7.25;;;9.00;93.10;;;;;;4936194;28;20019;-68
2022/04/25 02:19:07;;;;;;;16.63;7.10;;;8.90;93.30;;;;;;4956477;28;20089;-67
2022/04/25 02:21:33;;;;;;;13.02;7.60;;;8.90;93.40;;;;;;4950507;28;20027;-67
2022/04/25 02:23:59;;;;;;;12.60;7.03;;;8.90;93.20;;;;;;4955328;28;20031;-68
2022/04/25 02:26:25;;;;;;;14.82;6.95;;;8.90;93.40;;;;;;4954220;28;20073;-68
2022/04/25 02:28:54;;;;;;;17.92;7.88;;;8.90;93.50;;;;;;4957547;28;20491;-67
2022/04/25 02:31:21;;;;;;;13.07;6.90;;;8.80;93.60;;;;;;4953070;28;20491;-67
2022/04/25 02:33:47;;;;;;;11.57;7.75;;;8.90;93.60;;;;;;4956417;28;20127;-68
2022/04/25 02:36:13;;;;;;;11.80;6.93;;;8.90;93.50;;;;;;4954107;28;20073;-68
2022/04/25 02:38:40;;;;;;;19.80;7.22;;;8.90;93.30;;;;;;4953938;28;20023;-68
2022/04/25 02:41:08;;;;;;;14.13;6.75;;;8.90;93.20;;;;;;4955878;28;20023;-68
2022/04/25 02:43:42;;;;;;;16.02;7.15;;;8.90;93.20;;;;;;4955647;28;20045;-68
2022/04/25 02:46:10;;;;;;;13.57;6.68;;;8.90;93.20;;;;;;4957338;28;20043;-68
2022/04/25 02:48:36;;;;;;;17.65;8.20;;;8.90;93.40;;;;;;4957579;28;20655;-68
2022/04/25 02:51:04;;;;;;;13.52;7.10;;;8.80;93.50;;;;;;4955571;28;20044;-68
2022/04/25 02:53:30;;;;;;;12.68;7.10;;;8.80;93.60;;;;;;4954653;28;20026;-68
2022/04/25 02:55:56;;;;;;;10.65;6.68;;;8.80;93.70;;;;;;4942754;28;20035;-67
2022/04/25 02:58:23;;;;;;;12.32;7.05;;;8.70;93.70;;;;;;4950089;28;20041;-68
2022/04/25 03:00:49;;;;;;;13.93;7.45;;;8.70;93.70;;;;;;4960553;28;20081;-68
2022/04/25 03:03:16;;;;;;;13.98;6.90;;;8.70;93.80;;;;;;4959217;28;20047;-68
2022/04/25 03:05:44;;;;;;;15.02;8.05;;;8.60;93.80;;;;;;4956300;28;20035;-68
2022/04/25 03:08:11;;;;;;;14.88;7.65;;;8.60;93.90;;;;;;4960525;28;20043;-68
2022/04/25 03:10:37;;;;;;;16.25;7.60;;;8.60;94.00;;;;;;4956679;28;20039;-68
2022/04/25 03:13:06;;;;;;;15.05;7.82;;;8.60;93.90;;;;;;4962050;28;20110;-68
2022/04/25 03:15:38;;;;;;;12.73;6.75;;;8.50;94.00;;;;;;4960747;28;20038;-68
2022/04/25 03:18:04;;;;;;;15.57;8.38;;;8.50;93.90;;;;;;4958670;28;20035;-68
2022/04/25 03:20:31;;;;;;;14.48;7.18;;;8.40;93.80;;;;;;4959504;28;20023;-68
2022/04/25 03:22:58;;;;;;;11.65;6.85;;;8.40;93.90;;;;;;4958629;28;20097;-68
2022/04/25 03:25:24;;;;;;;13.43;7.88;;;8.30;94.20;;;;;;4959764;28;20039;-68
2022/04/25 03:27:50;;;;;;;17.65;8.15;;;8.30;93.90;;;;;;4964485;28;20039;-68
2022/04/25 03:30:16;;;;;;;13.52;6.80;;;8.30;93.90;;;;;;4959622;28;20033;-68
2022/04/25 03:32:46;;;;;;;12.50;7.45;;;8.20;94.00;;;;;;4956797;28;20035;-68
2022/04/25 03:35:13;;;;;;;15.27;7.93;;;8.20;94.20;;;;;;4957404;28;20502;-68
2022/04/25 03:37:39;;;;;;;14.98;7.78;;;8.20;94.30;;;;;;4946299;28;20027;-68
2022/04/25 03:40:06;;;;;;;15.88;8.82;;;8.20;94.30;;;;;;4959939;28;20050;-68
2022/04/25 03:42:34;;;;;;;12.30;6.68;;;8.20;94.10;;;;;;4961007;28;20039;-68
2022/04/25 03:45:00;;;;;;;18.13;8.23;;;8.20;94.10;;;;;;4962298;28;20034;-68
2022/04/25 03:47:29;;;;;;;13.82;8.60;;;8.20;94.00;;;;;;4959002;28;20038;-68
2022/04/25 03:49:55;;;;;;;13.60;8.43;;;8.20;94.00;;;;;;4956453;28;20114;-68
2022/04/25 03:52:20;;;;;;;11.65;7.00;;;8.20;94.00;;;;;;4959786;28;20792;-68
2022/04/25 03:57:30;;;;;;;11.95;7.05;;;8.20;94.20;;;;;;4957483;28;20039;-68
2022/04/25 03:59:56;;;;;;;14.15;8.05;;;8.20;94.10;;;;;;4950360;28;20093;-68
2022/04/25 04:02:22;;;;;;;15.82;8.18;;;8.20;94.00;;;;;;4959964;28;20031;-68
2022/04/25 04:04:48;;;;;;;14.52;7.40;;;8.30;93.90;;;;;;4954089;28;20035;-67
2022/04/25 04:07:14;;;;;;;12.80;7.82;;;8.30;93.90;;;;;;4956172;28;20062;-67
2022/04/25 04:09:45;;;;;;;18.60;9.00;;;8.40;93.90;;;;;;4957527;28;20075;-68
2022/04/25 04:12:12;;;;;;;14.63;7.88;;;8.50;93.70;;;;;;4953716;28;20118;-67
2022/04/25 04:14:39;;;;;;;13.13;7.72;;;8.50;93.60;;;;;;4936246;28;20108;-68
2022/04/25 04:17:07;;;;;;;14.27;8.00;;;8.50;93.30;;;;;;4955885;28;20047;-68
2022/04/25 04:19:37;;;;;;;15.45;7.32;;;8.50;93.10;;;;;;4957967;28;20144;-68
2022/04/25 04:22:05;;;;;;;13.85;6.72;;;8.60;92.80;;;;;;4959676;28;20042;-68
2022/04/25 04:24:32;;;;;;;10.68;6.60;;;8.60;92.70;;;;;;4958273;28;20027;-68
2022/04/25 04:27:02;;;;;;;15.10;6.97;;;8.60;92.70;;;;;;4939902;28;20031;-68
2022/04/25 04:29:32;;;;;;;9.88;6.18;;;8.70;92.50;;;;;;4955877;28;20637;-68
2022/04/25 04:32:05;;;;;;;13.35;7.65;;;8.70;92.30;;;;;;4953657;28;20035;-67
2022/04/25 04:34:32;;;;;;;13.23;7.60;;;8.80;92.20;;;;;;4951229;28;20073;-68
2022/04/25 04:36:59;;;;;;;16.27;7.35;;;8.80;91.90;;;;;;4959704;28;20110;-68
2022/04/25 04:39:24;;;;;;;12.82;7.10;;;8.80;91.80;;;;;;4961736;28;20038;-68
2022/04/25 04:41:50;;;;;;;16.30;8.48;;;8.80;91.80;;;;;;4961210;28;20035;-68
2022/04/25 04:44:17;;;;;;;12.68;6.68;;;8.90;91.50;;;;;;4959481;28;20130;-68
2022/04/25 04:46:43;;;;;;;11.50;7.35;;;8.90;91.40;;;;;;4954297;28;20050;-68
2022/04/25 04:49:09;;;;;;;15.15;7.47;;;8.90;91.40;;;;;;4959268;28;20042;-68
2022/04/25 04:51:34;;;;;;;11.00;6.72;;;8.90;91.40;;;;;;4953775;28;20035;-68
2022/04/25 04:54:01;;;;;;;15.18;7.55;;;8.90;91.30;;;;;;4957604;28;20033;-68
2022/04/25 04:56:31;;;;;;;10.43;6.88;;;9.00;91.00;;;;;;4958188;28;20053;-68
2022/04/25 04:58:58;;;;;;;13.57;8.07;;;9.00;90.90;;;;;;4958904;28;20030;-68
2022/04/25 05:01:24;;;;;;;13.02;6.72;;;9.00;91.00;;;;;;4955046;28;20031;-68
2022/04/25 05:03:50;;;;;;;12.05;6.50;;;9.00;91.00;;;;;;4953293;28;20050;-68
2022/04/25 05:06:16;;;;;;;18.65;7.53;;;9.00;90.60;;;;;;4955019;28;20031;-68
2022/04/25 05:08:42;;;;;;;13.05;6.85;;;8.90;90.60;;;;;;4958542;28;20129;-68
2022/04/25 05:11:09;;;;;;;12.93;7.30;;;9.00;90.90;;;;;;4953272;28;20038;-68
2022/04/25 05:13:36;;;;;;;12.55;6.32;;;9.10;90.80;;;;;;4959622;28;20061;-68
2022/04/25 05:16:03;;;;;;;14.65;7.00;;;9.10;90.80;;;;;;4956635;28;20034;-68
2022/04/25 05:18:32;;;;;;;12.30;6.32;;;9.10;90.70;;;;;;4957822;28;20050;-68
2022/04/25 05:21:02;;;;;;;12.52;7.28;;;9.10;90.50;;;;;;4955250;28;20050;-68
2022/04/25 05:23:28;;;;;;;10.23;6.47;;;9.20;90.70;;;;;;4956242;28;20027;-68
2022/04/25 05:25:54;;;;;;;11.85;6.20;;;9.20;90.50;;;;;;4958956;28;20106;-68
2022/04/25 05:28:22;;;;;;;13.57;7.35;;;9.30;90.30;;;;;;4955482;28;20033;-68
2022/04/25 05:30:49;;;;;;;13.27;6.25;;;9.30;90.20;;;;;;4956891;28;20031;-68
2022/04/25 05:33:18;;;;;;;12.85;6.55;;;9.30;89.10;;;;;;4959627;28;20162;-68
2022/04/25 05:35:45;;;;;;;12.23;6.43;;;9.40;89.20;;;;;;4954844;28;20077;-68
2022/04/25 05:38:12;;;;;;;10.32;6.10;;;9.50;88.40;;;;;;4954345;28;20034;-68
2022/04/25 05:40:40;;;;;;;12.68;6.28;;;9.50;88.60;;;;;;4958979;28;20043;-68
2022/04/25 05:43:07;;;;;;;13.07;6.90;;;9.50;87.40;;;;;;4956727;28;20035;-68
2022/04/25 05:45:33;;;;;;;13.60;6.70;;;9.40;87.30;;;;;;4957003;28;20043;-68
2022/04/25 05:47:59;;;;;;;15.88;6.70;;;9.40;89.00;;;;;;4953198;28;20039;-68
2022/04/25 05:53:14;;;;;;;10.00;6.10;;;9.60;88.50;;;;;;4959094;28;20289;-68
2022/04/25 05:55:41;;;;;;;10.55;6.18;;;9.60;88.30;;;;;;4956536;28;20030;-68
2022/04/25 05:58:07;;;;;;;12.07;6.40;;;9.60;87.00;;;;;;4957579;28;20039;-68
2022/04/25 06:00:34;;;;;;;10.27;6.03;;;9.60;86.40;;;;;;4956904;28;20596;-68
2022/04/25 06:03:02;;;;;;;10.80;5.70;;;9.60;87.10;;;;;;4958103;28;20134;-68
2022/04/25 06:05:28;;;;;;;9.98;6.00;;;9.60;87.10;;;;;;4933762;28;20023;-68
2022/04/25 06:07:54;;;;;;;10.93;6.85;;;9.60;86.90;;;;;;4953973;28;20388;-69
2022/04/25 06:10:22;;;;;;;14.07;6.43;;;9.70;86.90;;;;;;4961198;28;20027;-68
2022/04/25 06:12:52;;;;;;;11.05;5.68;;;9.70;86.70;;;;;;4956553;28;20035;-68
2022/04/25 06:15:21;;;;;;;10.38;5.97;;;9.70;87.80;;;;;;4952897;28;20038;-68
2022/04/25 06:17:47;;;;;;;11.70;6.40;;;9.80;87.50;;;;;;4957260;28;20042;-69
2022/04/25 06:20:13;;;;;;;12.10;6.28;;;9.90;87.60;;;;;;4956841;28;20081;-68
2022/04/25 06:22:39;;;;;;;11.13;6.95;;;10.00;86.80;;;;;;4939239;28;20027;-68
2022/04/25 06:25:06;;;;;;;11.38;5.80;;;10.10;83.70;;;;;;4950431;28;20093;-68
2022/04/25 06:27:32;;;;;;;13.25;6.15;;;10.20;84.20;;;;;;4955314;28;20035;-68
2022/04/25 06:29:58;;;;;;;12.02;5.78;;;10.40;83.10;;;;;;4955061;28;20043;-68
2022/04/25 06:32:25;;;;;;;12.93;6.35;;;10.40;82.40;;;;;;4954917;28;20041;-68
2022/04/25 06:34:51;;;;;;;12.82;6.40;;;10.40;83.50;;;;;;4953016;28;20031;-68
2022/04/25 06:37:16;;;;;;;13.07;6.50;;;10.50;84.00;;;;;;4957496;28;20031;-68
2022/04/25 06:39:42;;;;;;;13.07;5.82;;;10.60;83.70;;;;;;4953726;28;20042;-68
2022/04/25 06:42:09;;;;;;;9.55;6.00;;;10.80;82.50;;;;;;4956200;28;20030;-68
2022/04/25 06:44:36;;;;;;;8.77;5.90;;;11.00;80.80;;;;;;4955855;28;20089;-68
2022/04/25 06:47:02;;;;;;;10.20;6.00;;;11.20;80.70;;;;;;4955477;28;20031;-68
2022/04/25 06:49:28;;;;;;;10.65;6.13;;;11.30;79.90;;;;;;4955787;28;20813;-69
2022/04/25 06:51:56;;;;;;;8.25;5.35;;;11.40;79.40;;;;;;4955313;28;20809;-68
2022/04/25 06:54:26;;;;;;;9.23;5.28;;;11.40;79.60;;;;;;4956281;28;20038;-68
2022/04/25 06:56:53;;;;;;;7.45;4.68;;;11.40;79.60;;;;;;4956779;28;20030;-68
2022/04/25 06:59:22;;;;;;;8.75;4.72;;;11.40;79.90;;;;;;4951847;28;20522;-68
2022/04/25 07:01:50;;;;;;;6.65;4.70;;;11.30;79.80;;;;;;4940133;28;20166;-69
2022/04/25 07:04:17;;;;;;;9.40;4.63;;;11.20;79.80;;;;;;4952732;28;20030;-69
2022/04/25 07:06:44;;;;;;;11.52;5.35;;;11.30;80.80;;;;;;4954113;28;20728;-69
2022/04/25 07:09:13;;;;;;;6.88;4.47;;;11.40;80.30;;;;;;4954929;28;20135;-69
2022/04/25 07:11:43;;;;;;;10.40;5.18;;;11.50;80.40;;;;;;4954763;28;20035;-69
2022/04/25 07:14:17;;;;;;;11.18;5.18;;;11.70;79.00;;;;;;4937948;28;20042;-69
2022/04/25 07:16:44;;;;;;;8.13;4.78;;;11.80;78.60;;;;;;4945258;28;20038;-68
2022/04/25 07:19:11;;;;;;;10.32;5.10;;;11.90;77.80;;;;;;4955211;28;20032;-69
2022/04/25 07:29:51;;;;;;;8.95;4.63;;;12.70;74.80;;;;;;4956786;28;20070;-70
2022/04/25 07:32:17;;;;;;;12.82;4.88;;;12.90;74.50;;;;;;4958202;28;20082;-69
2022/04/25 07:34:43;;;;;;;8.18;4.60;;;12.90;72.80;;;;;;4955513;28;20547;-70
2022/04/25 07:37:10;;;;;;;7.47;4.38;;;12.90;72.30;;;;;;4959175;28;20037;-70
2022/04/25 07:39:35;;;;;;;7.20;4.28;;;12.90;72.30;;;;;;4954839;28;20030;-69
2022/04/25 07:42:01;;;;;;;8.52;3.75;;;13.10;72.20;;;;;;4953001;28;20026;-71
2022/04/25 07:44:27;;;;;;;7.88;4.68;;;13.30;71.50;;;;;;4955124;28;20849;-70
2022/04/25 07:46:53;;;;;;;6.90;4.03;;;13.50;70.90;;;;;;4937959;28;20041;-70
2022/04/25 07:49:19;;;;;;;9.52;4.40;;;13.50;70.00;;;;;;4958524;28;20477;-69
2022/04/25 07:51:45;;;;;;;9.35;4.43;;;13.50;70.60;;;;;;4958471;28;20022;-68
2022/04/25 07:54:11;;;;;;;8.25;4.50;;;13.60;70.40;;;;;;4959990;28;20031;-68
2022/04/25 07:56:38;;;;;;;5.97;3.72;;;13.70;70.60;;;;;;4961948;28;20027;-69
2022/04/25 07:59:05;;;;;;;7.88;3.78;;;13.90;69.40;;;;;;4959304;28;20446;-69
2022/04/25 08:01:33;;;;;;;7.45;4.18;;;14.00;68.80;;;;;;4956612;28;20023;-72
2022/04/25 08:03:58;;;;;;;7.28;3.88;;;14.20;68.60;;;;;;4964033;28;20031;-72
2022/04/25 08:06:24;;;;;;;5.90;3.70;;;14.40;67.70;;;;;;4964363;28;20506;-71
2022/04/25 08:08:54;;;;;;;6.40;3.50;;;14.50;66.50;;;;;;4963427;28;20573;-72
2022/04/25 08:11:21;;;;;;;8.38;3.97;;;14.80;66.30;;;;;;4955523;28;20031;-71
2022/04/25 08:19:17;;;;;;;6.32;3.33;;;15.30;62.70;;;;;;4962840;28;20030;-72
2022/04/25 08:21:45;;;;;;;5.43;3.45;;;15.60;60.40;;;;;;4963571;28;20027;-72
2022/04/25 08:24:11;;;;;;;9.55;4.13;;;15.80;61.10;;;;;;4959119;28;20612;-72
2022/04/25 08:26:38;;;;;;;8.23;3.85;;;16.00;60.80;;;;;;4956787;28;20038;-70
2022/04/25 08:29:04;;;;;;;7.28;4.15;;;16.10;60.70;;;;;;4961649;28;20114;-69
2022/04/25 08:31:35;;;;;;;6.93;3.85;;;16.30;60.80;;;;;;4944972;28;20144;-69
2022/04/25 08:34:02;;;;;;;5.40;3.45;;;16.60;60.00;;;;;;4955051;28;20105;-70
2022/04/25 08:36:29;;;;;;;6.95;3.70;;;16.80;57.70;;;;;;4952631;28;20027;-71
2022/04/25 08:38:55;;;;;;;5.68;3.33;;;16.90;55.80;;;;;;4954892;28;20110;-71
2022/04/25 08:41:53;;;;;;;10.50;3.83;;;17.30;57.10;;;;;;4960370;28;20038;-70
2022/04/25 08:44:20;;;;;;;7.53;3.47;;;18.60;54.60;;;;;;4951260;28;20170;-70
2022/04/25 08:46:51;;;;;;;5.35;3.17;;;19.50;51.60;;;;;;4956201;28;20050;-71
2022/04/25 08:49:19;;;;;;;5.47;3.22;;;21.50;46.90;;;;;;4960485;28;20042;-71
2022/04/25 08:51:47;;;;;;;5.50;3.40;;;22.70;43.30;;;;;;4957551;28;20415;-72
2022/04/25 08:54:13;;;;;;;5.80;3.40;;;22.00;44.20;;;;;;4939186;28;20038;-72
2022/04/25 08:56:41;;;;;;;6.57;3.45;;;21.40;46.80;;;;;;4961699;28;20042;-72
2022/04/25 08:59:08;;;;;;;7.78;3.90;;;21.00;46.30;;;;;;4963636;28;20035;-73
2022/04/25 09:01:35;;;;;;;7.03;4.35;;;20.70;46.90;;;;;;4962535;28;20121;-69
2022/04/25 09:04:02;;;;;;;7.20;3.85;;;20.60;47.10;;;;;;4959154;28;20035;-70
2022/04/25 09:06:28;;;;;;;4.28;3.10;;;21.40;45.60;;;;;;4958979;28;20041;-69
2022/04/25 09:08:55;;;;;;;4.15;3.10;;;22.70;43.80;;;;;;4959063;28;20978;-69
2022/04/25 09:14:12;;;;;;;5.28;3.33;;;26.20;37.50;;;;;;4955774;28;20035;-70
2022/04/25 09:16:39;;;;;;;6.18;2.67;;;27.10;35.00;;;;;;4942749;28;20141;-69
2022/04/25 09:19:06;;;;;;;4.85;3.25;;;27.70;35.30;;;;;;4960666;28;20104;-69
2022/04/25 09:21:40;;;;;;;4.35;2.60;;;28.90;32.20;;;;;;4958299;28;20046;-71
2022/04/25 09:24:29;;;;;;;3.03;2.50;;;31.60;30.30;;;;;;4956608;28;20034;-71
2022/04/25 09:27:07;;;;;;;5.32;2.80;;;34.00;27.60;;;;;;4952539;28;20037;-71
2022/04/25 09:29:34;;;;;;;4.85;2.65;;;34.50;27.50;;;;;;4954699;28;20034;-71
2022/04/25 09:32:00;;;;;;;5.03;3.30;;;33.50;26.70;;;;;;4951926;28;20049;-71
2022/04/25 09:37:14;;;;;;;11.95;3.05;;;29.80;30.70;;;;;;4955318;28;20839;-70
2022/04/25 09:39:40;;;;;;;5.53;2.80;;;30.40;29.40;;;;;;4942302;28;20399;-71
2022/04/25 09:42:07;;;;;;;3.92;2.38;;;30.80;29.70;;;;;;4939442;28;20027;-70
2022/04/25 09:44:58;;;;;;;4.25;2.63;;;30.30;29.80;;;;;;4954701;28;20046;-70
2022/04/25 09:47:36;;;;;;;5.03;2.85;;;28.20;31.80;;;;;;4942712;28;20039;-69
2022/04/25 09:50:06;;;;;;;4.22;2.83;;;26.10;34.60;;;;;;4956742;28;20034;-69
2022/04/25 09:52:57;;;;;;;4.22;2.30;;;25.10;37.40;;;;;;4958364;28;20041;-70
2022/04/25 09:55:33;;;;;;;3.42;2.35;;;25.30;37.50;;;;;;4958432;28;20027;-71
2022/04/25 09:58:19;;;;;;;5.93;3.10;;;26.00;37.10;;;;;;4958736;28;20022;-71
2022/04/25 10:00:46;;;;;;;4.10;2.87;;;26.80;34.90;;;;;;4953424;28;20031;-71
2022/04/25 10:03:14;;;;;;;6.80;2.95;;;26.60;35.40;;;;;;4959656;28;20034;-71
2022/04/25 10:05:42;;;;;;;4.95;2.85;;;27.70;34.50;;;;;;4953756;28;20824;-71
2022/04/25 10:08:10;;;;;;;3.97;3.13;;;29.60;30.90;;;;;;4958191;28;20105;-72
2022/04/25 10:10:40;;;;;;;5.07;2.83;;;29.20;30.30;;;;;;4957334;28;20037;-71
2022/04/25 10:13:06;;;;;;;5.10;2.90;;;28.90;32.00;;;;;;4949347;28;20492;-71
2022/04/25 10:15:33;;;;;;;6.32;2.92;;;28.30;31.80;;;;;;4952813;28;20031;-70
2022/04/25 10:18:01;;;;;;;5.35;2.85;;;27.40;32.90;;;;;;4953281;28;20043;-71
2022/04/25 10:20:27;;;;;;;3.78;2.63;;;26.50;34.80;;;;;;4957721;28;20137;-71
2022/04/25 10:22:53;;;;;;;5.30;2.58;;;27.10;34.60;;;;;;4955387;28;20039;-72
2022/04/25 10:25:18;;;;;;;4.53;2.50;;;26.70;33.50;;;;;;4952673;28;20708;-71
2022/04/25 10:27:46;;;;;;;6.93;2.45;;;27.20;33.50;;;;;;4953249;28;20022;-70
2022/04/25 10:30:16;;;;;;;6.82;2.83;;;28.40;32.70;;;;;;4946170;28;20038;-71
2022/04/25 10:32:42;;;;;;;5.88;2.50;;;28.10;32.40;;;;;;4950399;28;20030;-72
2022/04/25 10:35:29;;;;;;;5.53;2.90;;;27.70;32.50;;;;;;4940220;28;20114;-72
2022/04/25 10:37:55;;;;;;;2.65;2.08;;;26.80;34.10;;;;;;4949213;28;20038;-71
2022/04/25 10:46:13;;;;;;;2.37;1.90;;;24.60;35.40;;;;;;4947889;28;20058;-71
2022/04/25 10:49:03;;;;;;;4.75;2.17;;;24.20;37.60;;;;;;4944906;28;20393;-70
2022/04/25 10:51:38;;;;;;;4.22;2.30;;;24.50;38.20;;;;;;4946855;28;20034;-72
2022/04/25 10:54:05;;;;;;;4.40;2.33;;;25.30;34.60;;;;;;4956539;28;20093;-72
2022/04/25 10:56:32;;;;;;;5.95;2.63;;;25.00;35.50;;;;;;4953898;28;20041;-72
2022/04/25 10:59:22;;;;;;;4.70;2.13;;;24.30;37.90;;;;;;4948612;28;20134;-70
2022/04/25 11:01:49;;;;;;;4.13;2.75;;;23.90;38.90;;;;;;4945805;28;20035;-70
2022/04/25 11:04:16;;;;;;;5.15;2.55;;;25.80;36.00;;;;;;4951645;28;20060;-71
2022/04/25 11:06:41;;;;;;;4.15;2.50;;;27.00;33.80;;;;;;4951336;28;20074;-70
2022/04/25 11:09:07;;;;;;;3.10;2.10;;;25.50;35.80;;;;;;4958947;28;20150;-72
2022/04/25 11:11:51;;;;;;;3.63;2.15;;;24.10;39.80;;;;;;4955101;28;20034;-70
2022/04/25 11:14:18;;;;;;;5.78;2.03;;;23.00;40.00;;;;;;4955443;28;20035;-69
2022/04/25 11:17:11;;;;;;;4.32;2.10;;;22.30;41.70;;;;;;4948501;28;20665;-70
2022/04/25 11:19:45;;;;;;;3.25;2.00;;;21.60;43.30;;;;;;4954210;28;20071;-70
2022/04/25 11:22:38;;;;;;;4.05;2.08;;;20.70;43.20;;;;;;4959975;28;20047;-72
2022/04/25 11:25:22;;;;;;;3.67;2.17;;;19.90;44.00;;;;;;4954720;28;20043;-72
2022/04/25 11:28:27;;;;;;;3.90;2.10;;;19.20;47.40;;;;;;4953042;28;20075;-72
2022/04/25 11:31:15;;;;;;;3.08;2.30;;;18.70;46.60;;;;;;4921184;29;20032;-72
2022/04/25 11:33:47;;;;;;;6.93;2.67;;;18.60;48.90;;;;;;4918408;29;20027;-70
2022/04/25 11:36:13;;;;;;;5.00;2.67;;;19.10;48.80;;;;;;4944165;28;20051;-71
2022/04/25 11:41:29;;;;;;;7.28;2.20;;;19.60;48.10;;;;;;4941456;28;20214;-70
2022/04/25 11:43:57;;;;;;;4.03;3.08;;;20.30;45.40;;;;;;4956928;28;20577;-71
2022/04/25 11:46:28;;;;;;;3.28;2.58;;;20.70;44.20;;;;;;4954191;28;20741;-72
2022/04/25 11:48:55;;;;;;;4.25;2.15;;;20.60;45.10;;;;;;4959528;28;20045;-71
2022/04/25 11:51:29;;;;;;;5.57;2.55;;;20.60;45.80;;;;;;4963624;28;20097;-71
2022/04/25 11:54:04;;;;;;;5.20;2.78;;;20.70;45.00;;;;;;4945908;28;20023;-71
2022/04/25 11:56:32;;;;;;;6.03;2.38;;;20.90;44.70;;;;;;4954975;28;20496;-72
2022/04/25 11:58:58;;;;;;;3.45;2.00;;;21.20;44.50;;;;;;4956934;28;20019;-72
2022/04/25 12:01:37;;;;;;;4.90;2.30;;;21.30;42.80;;;;;;4955245;28;20101;-72
2022/04/25 12:04:28;;;;;;;6.78;2.28;;;21.40;45.10;;;;;;4954735;28;20863;-72
2022/04/25 12:07:00;;;;;;;4.32;2.10;;;21.10;43.20;;;;;;4941524;28;20035;-71
2022/04/25 12:17:47;;;;;;;3.95;2.10;;;20.00;43.60;;;;;;4956582;28;20034;-71
2022/04/25 12:20:14;;;;;;;3.88;2.50;;;20.10;44.90;;;;;;4954694;28;20031;-71
2022/04/25 12:22:51;;;;;;;5.43;2.13;;;20.30;44.80;;;;;;4959818;28;20030;-71
2022/04/25 12:25:29;;;;;;;3.38;2.28;;;20.50;45.70;;;;;;4952390;28;20034;-71
2022/04/25 12:28:15;;;;;;;2.33;2.13;;;20.40;43.60;;;;;;4957652;28;20110;-69
2022/04/25 12:30:55;;;;;;;6.13;2.20;;;20.10;45.00;;;;;;4962421;28;20121;-70
2022/04/25 12:33:23;;;;;;;3.25;1.63;;;20.10;45.20;;;;;;4954564;28;20039;-71
2022/04/25 12:36:05;;;;;;;5.45;3.35;;;20.40;45.00;;;;;;4957009;28;20487;-72
2022/04/25 12:38:40;;;;;;;5.10;3.97;;;20.80;45.30;;;;;;4938204;28;20294;-72
2022/04/25 12:41:08;;;;;;;4.93;2.80;;;21.00;43.90;;;;;;4956781;28;20117;-72
2022/04/25 12:43:45;;;;;;;3.75;2.42;;;21.10;44.10;;;;;;4944375;28;20402;-72
2022/04/25 12:46:16;;;;;;;3.95;2.30;;;21.00;42.80;;;;;;4957173;28;20118;-72
2022/04/25 12:48:56;;;;;;;3.65;2.05;;;20.80;41.70;;;;;;4955458;28;20038;-71
2022/04/25 12:51:45;;;;;;;3.08;2.08;;;20.70;42.90;;;;;;4953450;28;20461;-72
2022/04/25 12:54:33;;;;;;;5.55;3.25;;;20.80;43.50;;;;;;4947526;28;20050;-70
2022/04/25 12:57:04;;;;;;;4.43;2.65;;;20.90;44.70;;;;;;4951550;28;20023;-70
2022/04/25 12:59:32;;;;;;;3.35;2.05;;;21.00;42.90;;;;;;4935647;28;20027;-71
2022/04/25 13:02:09;;;;;;;2.17;1.98;;;21.00;43.60;;;;;;4955338;28;20031;-71
2022/04/25 13:04:52;;;;;;;4.10;2.42;;;21.00;43.30;;;;;;4953466;28;20055;-71
2022/04/25 13:07:31;;;;;;;3.70;2.50;;;21.00;42.70;;;;;;4955976;28;20050;-71
2022/04/25 13:10:02;;;;;;;2.95;2.35;;;20.60;44.30;;;;;;4942035;28;20031;-69
2022/04/25 13:12:40;;;;;;;7.10;3.25;;;20.50;44.60;;;;;;4955786;28;20031;-69
2022/04/25 13:15:07;;;;;;;4.80;2.50;;;20.60;44.50;;;;;;4957381;28;20033;-70
2022/04/25 13:17:36;;;;;;;3.20;2.15;;;20.50;42.20;;;;;;4936819;28;20033;-70
2022/04/25 13:20:04;;;;;;;4.15;3.05;;;20.30;43.30;;;;;;4954963;28;20043;-71
2022/04/25 13:22:29;;;;;;;7.53;3.78;;;20.40;44.80;;;;;;4955955;28;20101;-69
2022/04/25 13:24:55;;;;;;;4.25;2.45;;;20.50;43.10;;;;;;4943050;28;20035;-69
2022/04/25 13:27:22;;;;;;;5.72;3.05;;;20.60;43.40;;;;;;4950625;28;20081;-69
2022/04/25 13:29:48;;;;;;;4.05;2.97;;;20.70;44.30;;;;;;4952855;28;20788;-70
2022/04/25 13:32:14;;;;;;;3.95;2.80;;;20.90;45.20;;;;;;4940306;28;20122;-70
2022/04/25 13:34:40;;;;;;;4.20;2.47;;;21.10;44.60;;;;;;4942931;28;20038;-70
2022/04/25 13:37:06;;;;;;;7.20;3.63;;;21.10;42.90;;;;;;4952993;28;20086;-70
2022/04/25 13:39:33;;;;;;;3.60;2.30;;;21.10;42.50;;;;;;4955162;28;20503;-70